sensor_id;sensor_type;location;lat;lon;timestamp;temperature;humidity
26186;DHT22;20067;48.764;9.176;2022-08-20T00:00:24;21.90;82.20
26186;DHT22;20067;48.764;9.176;2022-08-20T00:02:56;22.00;82.00
26186;DHT22;20067;48.764;9.176;2022-08-20T00:05:30;21.90;82.20
26186;DHT22;20067;48.764;9.176;2022-08-20T00:07:56;21.80;82.80
26186;DHT22;20067;48.764;9.176;2022-08-20T00:10:24;21.70;82.70
26186;DHT22;20067;48.764;9.176;2022-08-20T00:12:51;21.70;82.80
26186;DHT22;20067;48.764;9.176;2022-08-20T00:15:20;21.60;83.30
26186;DHT22;20067;48.764;9.176;2022-08-20T00:17:47;21.60;83.20
26186;DHT22;20067;48.764;9.176;2022-08-20T00:20:16;21.60;83.40
26186;DHT22;20067;48.764;9.176;2022-08-20T00:22:42;21.60;83.40
26186;DHT22;20067;48.764;9.176;2022-08-20T00:25:09;21.60;83.60
26186;DHT22;20067;48.764;9.176;2022-08-20T00:27:36;21.50;84.00
26186;DHT22;20067;48.764;9.176;2022-08-20T00:30:04;21.50;83.90
26186;DHT22;20067;48.764;9.176;2022-08-20T00:32:30;21.40;84.20
26186;DHT22;20067;48.764;9.176;2022-08-20T00:34:56;21.30;84.80
26186;DHT22;20067;48.764;9.176;2022-08-20T00:37:22;21.40;84.20
26186;DHT22;20067;48.764;9.176;2022-08-20T00:39:47;21.40;84.30
26186;DHT22;20067;48.764;9.176;2022-08-20T00:42:13;21.30;84.30
26186;DHT22;20067;48.764;9.176;2022-08-20T00:44:45;21.30;84.50
26186;DHT22;20067;48.764;9.176;2022-08-20T00:47:11;21.20;84.90
26186;DHT22;20067;48.764;9.176;2022-08-20T00:49:37;21.20;85.00
26186;DHT22;20067;48.764;9.176;2022-08-20T00:52:07;21.20;85.10
26186;DHT22;20067;48.764;9.176;2022-08-20T00:54:47;21.10;85.10
26186;DHT22;20067;48.764;9.176;2022-08-20T00:59:52;21.20;85.20
26186;DHT22;20067;48.764;9.176;2022-08-20T01:02:21;21.20;85.30
26186;DHT22;20067;48.764;9.176;2022-08-20T01:04:47;21.20;85.10
26186;DHT22;20067;48.764;9.176;2022-08-20T01:07:20;21.10;85.40
26186;DHT22;20067;48.764;9.176;2022-08-20T01:09:52;21.20;85.00
26186;DHT22;20067;48.764;9.176;2022-08-20T01:12:18;21.20;85.10
26186;DHT22;20067;48.764;9.176;2022-08-20T01:14:45;21.30;84.80
26186;DHT22;20067;48.764;9.176;2022-08-20T01:17:15;21.30;84.80
26186;DHT22;20067;48.764;9.176;2022-08-20T01:19:54;21.30;85.00
26186;DHT22;20067;48.764;9.176;2022-08-20T01:22:34;21.30;84.80
26186;DHT22;20067;48.764;9.176;2022-08-20T01:28:13;21.30;84.80
26186;DHT22;20067;48.764;9.176;2022-08-20T01:30:40;21.30;84.90
26186;DHT22;20067;48.764;9.176;2022-08-20T01:33:07;21.30;85.10
26186;DHT22;20067;48.764;9.176;2022-08-20T01:35:40;21.20;85.30
26186;DHT22;20067;48.764;9.176;2022-08-20T01:38:06;21.30;85.50
26186;DHT22;20067;48.764;9.176;2022-08-20T01:40:54;21.30;85.00
26186;DHT22;20067;48.764;9.176;2022-08-20T01:43:22;21.30;85.00
26186;DHT22;20067;48.764;9.176;2022-08-20T01:45:49;21.40;84.80
26186;DHT22;20067;48.764;9.176;2022-08-20T01:48:16;21.30;85.00
26186;DHT22;20067;48.764;9.176;2022-08-20T01:50:48;21.40;84.60
26186;DHT22;20067;48.764;9.176;2022-08-20T01:53:23;21.30;84.90
26186;DHT22;20067;48.764;9.176;2022-08-20T01:55:50;21.30;84.90
26186;DHT22;20067;48.764;9.176;2022-08-20T01:58:16;21.30;85.20
26186;DHT22;20067;48.764;9.176;2022-08-20T02:00:41;21.30;85.20
26186;DHT22;20067;48.764;9.176;2022-08-20T02:03:07;21.30;85.00
26186;DHT22;20067;48.764;9.176;2022-08-20T02:05:34;21.30;85.30
26186;DHT22;20067;48.764;9.176;2022-08-20T02:08:01;21.30;85.30
26186;DHT22;20067;48.764;9.176;2022-08-20T02:10:27;21.30;85.30
26186;DHT22;20067;48.764;9.176;2022-08-20T02:12:56;21.20;85.40
26186;DHT22;20067;48.764;9.176;2022-08-20T02:15:22;21.20;85.40
26186;DHT22;20067;48.764;9.176;2022-08-20T02:17:48;21.20;85.30
26186;DHT22;20067;48.764;9.176;2022-08-20T02:20:19;21.20;85.40
26186;DHT22;20067;48.764;9.176;2022-08-20T02:22:56;21.20;85.50
26186;DHT22;20067;48.764;9.176;2022-08-20T02:25:25;21.20;85.50
26186;DHT22;20067;48.764;9.176;2022-08-20T02:27:53;21.20;85.60
26186;DHT22;20067;48.764;9.176;2022-08-20T02:30:24;21.20;85.70
26186;DHT22;20067;48.764;9.176;2022-08-20T02:32:50;21.20;85.70
26186;DHT22;20067;48.764;9.176;2022-08-20T02:35:16;21.20;85.80
26186;DHT22;20067;48.764;9.176;2022-08-20T02:37:44;21.10;85.80
26186;DHT22;20067;48.764;9.176;2022-08-20T02:40:14;21.10;86.20
26186;DHT22;20067;48.764;9.176;2022-08-20T02:42:40;21.10;86.10
26186;DHT22;20067;48.764;9.176;2022-08-20T02:45:09;21.10;86.10
26186;DHT22;20067;48.764;9.176;2022-08-20T02:47:36;21.10;86.00
26186;DHT22;20067;48.764;9.176;2022-08-20T02:50:02;21.10;86.00
26186;DHT22;20067;48.764;9.176;2022-08-20T02:52:29;21.10;86.00
26186;DHT22;20067;48.764;9.176;2022-08-20T02:54:54;21.20;86.00
26186;DHT22;20067;48.764;9.176;2022-08-20T02:57:20;21.20;86.10
26186;DHT22;20067;48.764;9.176;2022-08-20T02:59:47;21.10;86.20
26186;DHT22;20067;48.764;9.176;2022-08-20T03:02:13;21.10;86.10
26186;DHT22;20067;48.764;9.176;2022-08-20T03:04:40;21.10;86.00
26186;DHT22;20067;48.764;9.176;2022-08-20T03:07:07;21.10;86.30
26186;DHT22;20067;48.764;9.176;2022-08-20T03:09:35;21.10;86.20
26186;DHT22;20067;48.764;9.176;2022-08-20T03:12:02;21.10;86.10
26186;DHT22;20067;48.764;9.176;2022-08-20T03:14:28;21.10;86.00
26186;DHT22;20067;48.764;9.176;2022-08-20T03:16:54;21.10;86.30
26186;DHT22;20067;48.764;9.176;2022-08-20T03:19:20;21.10;86.60
26186;DHT22;20067;48.764;9.176;2022-08-20T03:21:47;21.00;86.60
26186;DHT22;20067;48.764;9.176;2022-08-20T03:24:13;21.00;86.70
26186;DHT22;20067;48.764;9.176;2022-08-20T03:26:39;21.00;86.90
26186;DHT22;20067;48.764;9.176;2022-08-20T03:29:05;20.90;87.00
26186;DHT22;20067;48.764;9.176;2022-08-20T03:31:30;20.90;87.10
26186;DHT22;20067;48.764;9.176;2022-08-20T03:33:56;20.90;87.30
26186;DHT22;20067;48.764;9.176;2022-08-20T03:36:24;20.90;87.40
26186;DHT22;20067;48.764;9.176;2022-08-20T03:38:50;20.90;87.40
26186;DHT22;20067;48.764;9.176;2022-08-20T03:41:16;20.80;87.40
26186;DHT22;20067;48.764;9.176;2022-08-20T03:43:43;20.80;87.50
26186;DHT22;20067;48.764;9.176;2022-08-20T03:46:10;20.80;87.70
26186;DHT22;20067;48.764;9.176;2022-08-20T03:48:35;20.80;87.40
26186;DHT22;20067;48.764;9.176;2022-08-20T03:51:01;20.90;87.50
26186;DHT22;20067;48.764;9.176;2022-08-20T03:53:28;20.90;87.70
26186;DHT22;20067;48.764;9.176;2022-08-20T03:55:57;20.80;87.70
26186;DHT22;20067;48.764;9.176;2022-08-20T03:58:26;20.80;87.90
26186;DHT22;20067;48.764;9.176;2022-08-20T04:00:53;20.80;88.00
26186;DHT22;20067;48.764;9.176;2022-08-20T04:03:23;20.70;87.90
26186;DHT22;20067;48.764;9.176;2022-08-20T04:05:49;20.70;88.10
26186;DHT22;20067;48.764;9.176;2022-08-20T04:08:20;20.70;88.20
26186;DHT22;20067;48.764;9.176;2022-08-20T04:10:47;20.70;88.40
26186;DHT22;20067;48.764;9.176;2022-08-20T04:13:14;20.70;88.30
26186;DHT22;20067;48.764;9.176;2022-08-20T04:15:40;20.70;88.60
26186;DHT22;20067;48.764;9.176;2022-08-20T04:18:08;20.70;88.40
26186;DHT22;20067;48.764;9.176;2022-08-20T04:20:36;20.70;88.40
26186;DHT22;20067;48.764;9.176;2022-08-20T04:23:03;20.70;88.50
26186;DHT22;20067;48.764;9.176;2022-08-20T04:25:31;20.70;88.60
26186;DHT22;20067;48.764;9.176;2022-08-20T04:27:57;20.60;88.70
26186;DHT22;20067;48.764;9.176;2022-08-20T04:30:24;20.70;88.70
26186;DHT22;20067;48.764;9.176;2022-08-20T04:32:50;20.70;88.80
26186;DHT22;20067;48.764;9.176;2022-08-20T04:35:17;20.70;88.70
26186;DHT22;20067;48.764;9.176;2022-08-20T04:37:46;20.70;88.70
26186;DHT22;20067;48.764;9.176;2022-08-20T04:40:15;20.70;88.60
26186;DHT22;20067;48.764;9.176;2022-08-20T04:43:02;20.70;88.70
26186;DHT22;20067;48.764;9.176;2022-08-20T04:45:29;20.70;88.80
26186;DHT22;20067;48.764;9.176;2022-08-20T04:47:55;20.60;89.10
26186;DHT22;20067;48.764;9.176;2022-08-20T04:50:21;20.60;89.50
26186;DHT22;20067;48.764;9.176;2022-08-20T04:52:47;20.60;89.60
26186;DHT22;20067;48.764;9.176;2022-08-20T04:55:15;20.60;89.60
26186;DHT22;20067;48.764;9.176;2022-08-20T04:57:42;20.60;89.90
26186;DHT22;20067;48.764;9.176;2022-08-20T05:00:11;20.60;89.90
26186;DHT22;20067;48.764;9.176;2022-08-20T05:02:38;20.50;89.90
26186;DHT22;20067;48.764;9.176;2022-08-20T05:05:04;20.50;89.90
26186;DHT22;20067;48.764;9.176;2022-08-20T05:07:40;20.50;90.00
26186;DHT22;20067;48.764;9.176;2022-08-20T05:10:09;20.50;90.00
26186;DHT22;20067;48.764;9.176;2022-08-20T05:12:35;20.40;90.10
26186;DHT22;20067;48.764;9.176;2022-08-20T05:15:01;20.40;90.30
26186;DHT22;20067;48.764;9.176;2022-08-20T05:17:26;20.40;90.30
26186;DHT22;20067;48.764;9.176;2022-08-20T05:19:53;20.40;90.20
26186;DHT22;20067;48.764;9.176;2022-08-20T05:22:19;20.50;90.60
26186;DHT22;20067;48.764;9.176;2022-08-20T05:24:45;20.60;90.10
26186;DHT22;20067;48.764;9.176;2022-08-20T05:27:10;20.60;90.00
26186;DHT22;20067;48.764;9.176;2022-08-20T05:29:36;20.60;89.60
26186;DHT22;20067;48.764;9.176;2022-08-20T05:32:02;20.60;89.70
26186;DHT22;20067;48.764;9.176;2022-08-20T05:34:28;20.70;89.80
26186;DHT22;20067;48.764;9.176;2022-08-20T05:36:54;20.60;89.40
26186;DHT22;20067;48.764;9.176;2022-08-20T05:39:21;20.60;89.70
26186;DHT22;20067;48.764;9.176;2022-08-20T05:41:47;20.60;90.10
26186;DHT22;20067;48.764;9.176;2022-08-20T05:44:16;20.70;89.70
26186;DHT22;20067;48.764;9.176;2022-08-20T05:46:43;20.70;89.70
26186;DHT22;20067;48.764;9.176;2022-08-20T05:49:12;20.70;89.80
26186;DHT22;20067;48.764;9.176;2022-08-20T05:51:38;20.70;89.70
26186;DHT22;20067;48.764;9.176;2022-08-20T05:54:05;20.70;89.80
26186;DHT22;20067;48.764;9.176;2022-08-20T05:56:32;20.60;89.90
26186;DHT22;20067;48.764;9.176;2022-08-20T05:59:00;20.60;90.20
26186;DHT22;20067;48.764;9.176;2022-08-20T06:01:28;20.70;90.10
26186;DHT22;20067;48.764;9.176;2022-08-20T06:03:54;20.70;90.10
26186;DHT22;20067;48.764;9.176;2022-08-20T06:06:39;20.70;89.80
26186;DHT22;20067;48.764;9.176;2022-08-20T06:09:04;20.80;89.60
26186;DHT22;20067;48.764;9.176;2022-08-20T06:11:30;20.80;89.60
26186;DHT22;20067;48.764;9.176;2022-08-20T06:13:56;20.90;89.70
26186;DHT22;20067;48.764;9.176;2022-08-20T06:16:22;21.00;89.20
26186;DHT22;20067;48.764;9.176;2022-08-20T06:18:47;21.10;89.00
26186;DHT22;20067;48.764;9.176;2022-08-20T06:21:13;21.20;89.10
26186;DHT22;20067;48.764;9.176;2022-08-20T06:23:39;21.30;88.20
26186;DHT22;20067;48.764;9.176;2022-08-20T06:26:06;21.40;87.90
26186;DHT22;20067;48.764;9.176;2022-08-20T06:28:34;21.50;87.80
26186;DHT22;20067;48.764;9.176;2022-08-20T06:30:59;21.60;87.40
26186;DHT22;20067;48.764;9.176;2022-08-20T06:33:25;21.60;87.40
26186;DHT22;20067;48.764;9.176;2022-08-20T06:35:51;21.50;87.40
26186;DHT22;20067;48.764;9.176;2022-08-20T06:38:17;21.40;87.70
26186;DHT22;20067;48.764;9.176;2022-08-20T06:40:43;21.30;88.20
26186;DHT22;20067;48.764;9.176;2022-08-20T06:43:08;21.20;88.60
26186;DHT22;20067;48.764;9.176;2022-08-20T06:45:35;21.30;89.00
26186;DHT22;20067;48.764;9.176;2022-08-20T06:48:08;21.40;88.40
26186;DHT22;20067;48.764;9.176;2022-08-20T06:50:37;21.50;88.30
26186;DHT22;20067;48.764;9.176;2022-08-20T06:53:08;21.50;88.20
26186;DHT22;20067;48.764;9.176;2022-08-20T06:55:36;21.60;88.30
26186;DHT22;20067;48.764;9.176;2022-08-20T06:58:06;21.70;87.10
26186;DHT22;20067;48.764;9.176;2022-08-20T07:00:33;21.70;87.40
26186;DHT22;20067;48.764;9.176;2022-08-20T07:03:00;21.70;87.10
26186;DHT22;20067;48.764;9.176;2022-08-20T07:05:27;21.80;87.50
26186;DHT22;20067;48.764;9.176;2022-08-20T07:07:53;21.90;87.00
26186;DHT22;20067;48.764;9.176;2022-08-20T07:10:20;21.90;86.90
26186;DHT22;20067;48.764;9.176;2022-08-20T07:12:46;22.00;86.40
26186;DHT22;20067;48.764;9.176;2022-08-20T07:15:16;21.90;86.30
26186;DHT22;20067;48.764;9.176;2022-08-20T07:17:50;21.90;86.30
26186;DHT22;20067;48.764;9.176;2022-08-20T07:20:16;22.00;86.20
26186;DHT22;20067;48.764;9.176;2022-08-20T07:22:42;21.90;86.20
26186;DHT22;20067;48.764;9.176;2022-08-20T07:25:10;21.90;86.60
26186;DHT22;20067;48.764;9.176;2022-08-20T07:27:37;21.90;86.50
26186;DHT22;20067;48.764;9.176;2022-08-20T07:30:05;21.90;87.10
26186;DHT22;20067;48.764;9.176;2022-08-20T07:32:50;21.90;86.50
26186;DHT22;20067;48.764;9.176;2022-08-20T07:35:17;21.90;86.60
26186;DHT22;20067;48.764;9.176;2022-08-20T07:37:46;21.90;86.90
26186;DHT22;20067;48.764;9.176;2022-08-20T07:40:29;22.00;86.60
26186;DHT22;20067;48.764;9.176;2022-08-20T07:42:57;22.10;86.90
26186;DHT22;20067;48.764;9.176;2022-08-20T07:45:25;22.20;86.10
26186;DHT22;20067;48.764;9.176;2022-08-20T07:47:52;22.10;86.10
26186;DHT22;20067;48.764;9.176;2022-08-20T07:50:20;22.00;86.10
26186;DHT22;20067;48.764;9.176;2022-08-20T07:52:46;22.00;86.10
26186;DHT22;20067;48.764;9.176;2022-08-20T07:55:14;22.10;86.20
26186;DHT22;20067;48.764;9.176;2022-08-20T07:57:41;22.30;85.80
26186;DHT22;20067;48.764;9.176;2022-08-20T08:00:09;22.50;85.10
26186;DHT22;20067;48.764;9.176;2022-08-20T08:02:35;22.60;84.40
26186;DHT22;20067;48.764;9.176;2022-08-20T08:05:01;22.80;83.60
26186;DHT22;20067;48.764;9.176;2022-08-20T08:07:27;23.00;84.20
26186;DHT22;20067;48.764;9.176;2022-08-20T08:09:54;23.20;83.00
26186;DHT22;20067;48.764;9.176;2022-08-20T08:12:22;23.00;82.70
26186;DHT22;20067;48.764;9.176;2022-08-20T08:14:49;22.70;84.00
26186;DHT22;20067;48.764;9.176;2022-08-20T08:17:16;22.80;84.00
26186;DHT22;20067;48.764;9.176;2022-08-20T08:19:46;22.80;84.00
26186;DHT22;20067;48.764;9.176;2022-08-20T08:22:15;23.00;83.60
26186;DHT22;20067;48.764;9.176;2022-08-20T08:24:42;23.20;82.30
26186;DHT22;20067;48.764;9.176;2022-08-20T08:27:09;23.50;82.80
26186;DHT22;20067;48.764;9.176;2022-08-20T08:29:36;23.80;82.00
26186;DHT22;20067;48.764;9.176;2022-08-20T08:32:03;23.90;80.40
26186;DHT22;20067;48.764;9.176;2022-08-20T08:34:31;23.80;80.60
26186;DHT22;20067;48.764;9.176;2022-08-20T08:36:57;23.70;81.40
26186;DHT22;20067;48.764;9.176;2022-08-20T08:39:23;23.90;80.20
26186;DHT22;20067;48.764;9.176;2022-08-20T08:41:50;24.20;80.40
26186;DHT22;20067;48.764;9.176;2022-08-20T08:44:23;24.30;78.90
26186;DHT22;20067;48.764;9.176;2022-08-20T08:46:57;24.60;79.30
26186;DHT22;20067;48.764;9.176;2022-08-20T08:49:28;24.50;77.70
26186;DHT22;20067;48.764;9.176;2022-08-20T08:52:19;24.50;78.30
26186;DHT22;20067;48.764;9.176;2022-08-20T08:54:49;24.30;78.40
26186;DHT22;20067;48.764;9.176;2022-08-20T08:57:16;24.30;78.80
26186;DHT22;20067;48.764;9.176;2022-08-20T08:59:44;24.30;79.00
26186;DHT22;20067;48.764;9.176;2022-08-20T09:02:21;24.20;77.30
26186;DHT22;20067;48.764;9.176;2022-08-20T09:04:48;24.00;77.70
26186;DHT22;20067;48.764;9.176;2022-08-20T09:07:16;24.00;79.20
26186;DHT22;20067;48.764;9.176;2022-08-20T09:09:44;24.10;78.10
26186;DHT22;20067;48.764;9.176;2022-08-20T09:12:16;24.10;78.00
26186;DHT22;20067;48.764;9.176;2022-08-20T09:14:46;24.20;78.20
26186;DHT22;20067;48.764;9.176;2022-08-20T09:17:13;24.30;78.60
26186;DHT22;20067;48.764;9.176;2022-08-20T09:19:39;24.10;78.30
26186;DHT22;20067;48.764;9.176;2022-08-20T09:22:16;24.10;78.30
26186;DHT22;20067;48.764;9.176;2022-08-20T09:24:43;24.00;77.40
26186;DHT22;20067;48.764;9.176;2022-08-20T09:27:09;24.00;78.20
26186;DHT22;20067;48.764;9.176;2022-08-20T09:29:36;24.00;78.70
26186;DHT22;20067;48.764;9.176;2022-08-20T09:32:15;24.00;78.20
26186;DHT22;20067;48.764;9.176;2022-08-20T09:34:45;24.10;78.30
26186;DHT22;20067;48.764;9.176;2022-08-20T09:37:12;24.30;77.20
26186;DHT22;20067;48.764;9.176;2022-08-20T09:39:38;24.30;77.20
26186;DHT22;20067;48.764;9.176;2022-08-20T09:42:15;24.50;76.50
26186;DHT22;20067;48.764;9.176;2022-08-20T09:44:42;24.50;76.10
26186;DHT22;20067;48.764;9.176;2022-08-20T09:47:08;24.50;75.70
26186;DHT22;20067;48.764;9.176;2022-08-20T09:49:34;24.50;76.10
26186;DHT22;20067;48.764;9.176;2022-08-20T09:52:03;24.50;75.70
26186;DHT22;20067;48.764;9.176;2022-08-20T09:54:31;24.50;76.20
26186;DHT22;20067;48.764;9.176;2022-08-20T09:57:01;24.60;76.10
26186;DHT22;20067;48.764;9.176;2022-08-20T09:59:28;24.70;75.60
26186;DHT22;20067;48.764;9.176;2022-08-20T10:01:55;24.90;75.70
26186;DHT22;20067;48.764;9.176;2022-08-20T10:04:21;25.00;75.00
26186;DHT22;20067;48.764;9.176;2022-08-20T10:06:47;24.90;75.50
26186;DHT22;20067;48.764;9.176;2022-08-20T10:09:13;24.60;75.40
26186;DHT22;20067;48.764;9.176;2022-08-20T10:11:39;24.60;76.40
26186;DHT22;20067;48.764;9.176;2022-08-20T10:14:05;24.80;75.00
26186;DHT22;20067;48.764;9.176;2022-08-20T10:16:31;24.70;75.70
26186;DHT22;20067;48.764;9.176;2022-08-20T10:18:57;24.60;74.50
26186;DHT22;20067;48.764;9.176;2022-08-20T10:21:22;24.60;75.20
26186;DHT22;20067;48.764;9.176;2022-08-20T10:23:48;24.80;75.20
26186;DHT22;20067;48.764;9.176;2022-08-20T10:26:14;24.90;74.90
26186;DHT22;20067;48.764;9.176;2022-08-20T10:28:42;24.80;74.70
26186;DHT22;20067;48.764;9.176;2022-08-20T10:31:09;25.10;76.30
26186;DHT22;20067;48.764;9.176;2022-08-20T10:33:36;25.20;75.50
26186;DHT22;20067;48.764;9.176;2022-08-20T10:36:11;24.90;75.00
26186;DHT22;20067;48.764;9.176;2022-08-20T10:38:40;24.60;75.40
26186;DHT22;20067;48.764;9.176;2022-08-20T10:41:06;24.50;76.00
26186;DHT22;20067;48.764;9.176;2022-08-20T10:43:32;24.50;76.50
26186;DHT22;20067;48.764;9.176;2022-08-20T10:45:58;24.30;76.90
26186;DHT22;20067;48.764;9.176;2022-08-20T10:48:24;24.10;77.00
26186;DHT22;20067;48.764;9.176;2022-08-20T10:50:50;24.00;77.30
26186;DHT22;20067;48.764;9.176;2022-08-20T10:53:16;24.00;77.00
26186;DHT22;20067;48.764;9.176;2022-08-20T10:55:42;24.30;75.70
26186;DHT22;20067;48.764;9.176;2022-08-20T10:58:08;24.50;75.60
26186;DHT22;20067;48.764;9.176;2022-08-20T11:00:35;24.40;76.20
26186;DHT22;20067;48.764;9.176;2022-08-20T11:03:01;24.30;77.90
26186;DHT22;20067;48.764;9.176;2022-08-20T11:05:27;24.20;77.80
26186;DHT22;20067;48.764;9.176;2022-08-20T11:07:53;24.20;77.60
26186;DHT22;20067;48.764;9.176;2022-08-20T11:10:20;24.30;77.60
26186;DHT22;20067;48.764;9.176;2022-08-20T11:12:46;24.30;77.00
26186;DHT22;20067;48.764;9.176;2022-08-20T11:15:13;24.30;76.50
26186;DHT22;20067;48.764;9.176;2022-08-20T11:17:40;24.70;76.40
26186;DHT22;20067;48.764;9.176;2022-08-20T11:20:07;25.00;74.50
26186;DHT22;20067;48.764;9.176;2022-08-20T11:22:33;25.20;73.60
26186;DHT22;20067;48.764;9.176;2022-08-20T11:24:59;25.10;74.00
26186;DHT22;20067;48.764;9.176;2022-08-20T11:27:34;25.20;72.20
26186;DHT22;20067;48.764;9.176;2022-08-20T11:30:01;25.00;73.20
26186;DHT22;20067;48.764;9.176;2022-08-20T11:32:27;24.90;73.00
26186;DHT22;20067;48.764;9.176;2022-08-20T11:34:53;24.70;73.50
26186;DHT22;20067;48.764;9.176;2022-08-20T11:37:20;24.60;74.20
26186;DHT22;20067;48.764;9.176;2022-08-20T11:39:46;24.60;74.80
26186;DHT22;20067;48.764;9.176;2022-08-20T11:42:12;24.70;75.00
26186;DHT22;20067;48.764;9.176;2022-08-20T11:44:38;24.60;74.20
26186;DHT22;20067;48.764;9.176;2022-08-20T11:47:05;24.70;73.90
26186;DHT22;20067;48.764;9.176;2022-08-20T11:49:33;24.80;74.70
26186;DHT22;20067;48.764;9.176;2022-08-20T11:51:59;24.90;73.80
26186;DHT22;20067;48.764;9.176;2022-08-20T11:54:25;24.90;74.10
26186;DHT22;20067;48.764;9.176;2022-08-20T11:56:54;24.90;73.80
26186;DHT22;20067;48.764;9.176;2022-08-20T11:59:25;24.90;74.00
26186;DHT22;20067;48.764;9.176;2022-08-20T12:01:52;24.90;75.40
26186;DHT22;20067;48.764;9.176;2022-08-20T12:04:23;24.60;75.10
26186;DHT22;20067;48.764;9.176;2022-08-20T12:06:49;24.60;75.80
26186;DHT22;20067;48.764;9.176;2022-08-20T12:09:15;24.70;75.90
26186;DHT22;20067;48.764;9.176;2022-08-20T12:11:41;24.80;76.10
26186;DHT22;20067;48.764;9.176;2022-08-20T12:14:07;24.80;75.80
26186;DHT22;20067;48.764;9.176;2022-08-20T12:16:33;24.80;74.90
26186;DHT22;20067;48.764;9.176;2022-08-20T12:18:58;24.60;75.30
26186;DHT22;20067;48.764;9.176;2022-08-20T12:21:24;24.50;74.50
26186;DHT22;20067;48.764;9.176;2022-08-20T12:23:50;24.50;74.60
26186;DHT22;20067;48.764;9.176;2022-08-20T12:26:15;24.40;74.90
26186;DHT22;20067;48.764;9.176;2022-08-20T12:28:41;24.50;75.10
26186;DHT22;20067;48.764;9.176;2022-08-20T12:31:07;24.70;76.40
26186;DHT22;20067;48.764;9.176;2022-08-20T12:33:32;24.90;75.00
26186;DHT22;20067;48.764;9.176;2022-08-20T12:35:58;25.00;74.60
26186;DHT22;20067;48.764;9.176;2022-08-20T12:38:24;25.20;75.00
26186;DHT22;20067;48.764;9.176;2022-08-20T12:40:50;25.30;74.20
26186;DHT22;20067;48.764;9.176;2022-08-20T12:43:15;25.40;76.20
26186;DHT22;20067;48.764;9.176;2022-08-20T12:45:41;25.40;74.30
26186;DHT22;20067;48.764;9.176;2022-08-20T12:48:10;25.50;73.20
26186;DHT22;20067;48.764;9.176;2022-08-20T12:50:38;25.60;73.50
26186;DHT22;20067;48.764;9.176;2022-08-20T12:53:04;25.80;73.60
26186;DHT22;20067;48.764;9.176;2022-08-20T12:55:30;26.00;73.00
26186;DHT22;20067;48.764;9.176;2022-08-20T12:57:58;26.00;71.40
26186;DHT22;20067;48.764;9.176;2022-08-20T13:00:33;26.00;72.20
26186;DHT22;20067;48.764;9.176;2022-08-20T13:03:01;26.00;72.20
26186;DHT22;20067;48.764;9.176;2022-08-20T13:05:28;25.70;71.70
26186;DHT22;20067;48.764;9.176;2022-08-20T13:07:54;25.50;73.10
26186;DHT22;20067;48.764;9.176;2022-08-20T13:10:26;25.30;74.10
26186;DHT22;20067;48.764;9.176;2022-08-20T13:12:53;25.20;74.70
26186;DHT22;20067;48.764;9.176;2022-08-20T13:15:20;24.50;77.40
26186;DHT22;20067;48.764;9.176;2022-08-20T13:17:50;23.80;82.90
26186;DHT22;20067;48.764;9.176;2022-08-20T13:20:16;23.50;84.40
26186;DHT22;20067;48.764;9.176;2022-08-20T13:22:42;23.40;84.40
26186;DHT22;20067;48.764;9.176;2022-08-20T13:25:10;23.40;84.90
26186;DHT22;20067;48.764;9.176;2022-08-20T13:27:36;23.40;85.60
26186;DHT22;20067;48.764;9.176;2022-08-20T13:30:06;23.50;84.10
26186;DHT22;20067;48.764;9.176;2022-08-20T13:32:32;23.70;84.40
26186;DHT22;20067;48.764;9.176;2022-08-20T13:34:58;23.60;84.40
26186;DHT22;20067;48.764;9.176;2022-08-20T13:37:26;23.30;84.40
26186;DHT22;20067;48.764;9.176;2022-08-20T13:39:53;23.10;85.00
26186;DHT22;20067;48.764;9.176;2022-08-20T13:42:19;23.00;85.80
26186;DHT22;20067;48.764;9.176;2022-08-20T13:44:46;23.00;86.70
26186;DHT22;20067;48.764;9.176;2022-08-20T13:47:19;22.70;87.30
26186;DHT22;20067;48.764;9.176;2022-08-20T13:49:46;22.60;89.10
26186;DHT22;20067;48.764;9.176;2022-08-20T13:52:12;22.60;88.90
26186;DHT22;20067;48.764;9.176;2022-08-20T13:54:38;22.70;88.10
26186;DHT22;20067;48.764;9.176;2022-08-20T13:57:13;22.90;87.90
26186;DHT22;20067;48.764;9.176;2022-08-20T13:59:42;23.00;87.00
26186;DHT22;20067;48.764;9.176;2022-08-20T14:02:09;23.20;87.20
26186;DHT22;20067;48.764;9.176;2022-08-20T14:04:35;23.20;86.80
26186;DHT22;20067;48.764;9.176;2022-08-20T14:07:15;23.20;85.90
26186;DHT22;20067;48.764;9.176;2022-08-20T14:09:43;23.20;86.90
26186;DHT22;20067;48.764;9.176;2022-08-20T14:12:11;23.10;86.80
26186;DHT22;20067;48.764;9.176;2022-08-20T14:14:38;23.00;88.00
26186;DHT22;20067;48.764;9.176;2022-08-20T14:17:34;22.80;87.20
26186;DHT22;20067;48.764;9.176;2022-08-20T14:20:02;22.90;86.20
26186;DHT22;20067;48.764;9.176;2022-08-20T14:22:28;23.10;85.30
26186;DHT22;20067;48.764;9.176;2022-08-20T14:24:54;23.40;84.80
26186;DHT22;20067;48.764;9.176;2022-08-20T14:27:22;24.20;84.80
26186;DHT22;20067;48.764;9.176;2022-08-20T14:29:49;24.40;83.30
26186;DHT22;20067;48.764;9.176;2022-08-20T14:32:15;24.70;82.10
26186;DHT22;20067;48.764;9.176;2022-08-20T14:34:41;25.50;78.70
26186;DHT22;20067;48.764;9.176;2022-08-20T14:37:25;26.00;76.60
26186;DHT22;20067;48.764;9.176;2022-08-20T14:39:53;25.60;77.30
26186;DHT22;20067;48.764;9.176;2022-08-20T14:42:19;25.20;79.70
26186;DHT22;20067;48.764;9.176;2022-08-20T14:44:47;26.60;76.60
26186;DHT22;20067;48.764;9.176;2022-08-20T14:47:20;27.50;74.70
26186;DHT22;20067;48.764;9.176;2022-08-20T14:49:50;27.40;75.20
26186;DHT22;20067;48.764;9.176;2022-08-20T14:52:17;26.30;76.50
26186;DHT22;20067;48.764;9.176;2022-08-20T14:54:44;25.00;80.70
26186;DHT22;20067;48.764;9.176;2022-08-20T14:57:11;25.00;81.60
26186;DHT22;20067;48.764;9.176;2022-08-20T14:59:37;24.50;83.20
26186;DHT22;20067;48.764;9.176;2022-08-20T15:02:07;24.30;83.80
26186;DHT22;20067;48.764;9.176;2022-08-20T15:04:34;24.80;82.70
26186;DHT22;20067;48.764;9.176;2022-08-20T15:07:01;24.80;81.70
26186;DHT22;20067;48.764;9.176;2022-08-20T15:09:34;24.60;82.70
26186;DHT22;20067;48.764;9.176;2022-08-20T15:12:00;25.20;80.80
26186;DHT22;20067;48.764;9.176;2022-08-20T15:14:26;25.60;79.90
26186;DHT22;20067;48.764;9.176;2022-08-20T15:16:53;25.80;79.40
26186;DHT22;20067;48.764;9.176;2022-08-20T15:19:18;26.10;77.80
26186;DHT22;20067;48.764;9.176;2022-08-20T15:21:44;26.50;75.80
26186;DHT22;20067;48.764;9.176;2022-08-20T15:24:10;26.20;77.10
26186;DHT22;20067;48.764;9.176;2022-08-20T15:26:36;25.80;79.00
26186;DHT22;20067;48.764;9.176;2022-08-20T15:29:02;25.70;79.20
26186;DHT22;20067;48.764;9.176;2022-08-20T15:31:27;25.80;78.20
26186;DHT22;20067;48.764;9.176;2022-08-20T15:33:53;25.70;79.80
26186;DHT22;20067;48.764;9.176;2022-08-20T15:36:19;25.50;80.30
26186;DHT22;20067;48.764;9.176;2022-08-20T15:38:45;25.10;81.50